createdAt,value
2023-05-12T00:03:41.710Z,100564.59
2023-05-12T00:09:03.750Z,100561.94
2023-05-12T00:14:25.838Z,100558.78
2023-05-12T00:19:48.906Z,100554.72
2023-05-12T00:25:11.901Z,100552.63
2023-05-12T00:30:34.607Z,100552.69
2023-05-12T00:35:57.653Z,100546.56
2023-05-12T00:41:20.086Z,100552.50
2023-05-12T00:46:42.965Z,100546.56
2023-05-12T00:52:07.482Z,100544.97
2023-05-12T00:57:30.443Z,100548.44
2023-05-12T01:02:53.600Z,100541.81
2023-05-12T01:08:18.187Z,100542.16
2023-05-12T01:13:41.908Z,100537.59
2023-05-12T01:19:08.465Z,100543.75
2023-05-12T01:24:33.167Z,100538.19
2023-05-12T01:29:58.607Z,100539.69
2023-05-12T01:35:20.937Z,100529.59
2023-05-12T01:40:51.711Z,100541.13
2023-05-12T01:46:14.442Z,100533.78
2023-05-12T01:51:37.786Z,100538.44
2023-05-12T01:57:00.138Z,100535.47
2023-05-12T02:02:22.633Z,100536.97
2023-05-12T02:07:44.996Z,100533.41
2023-05-12T02:13:08.224Z,100539.44
2023-05-12T02:18:30.767Z,100547.91
2023-05-12T02:24:14.933Z,100543.47
2023-05-12T02:29:38.732Z,100546.56
2023-05-12T02:35:01.748Z,100539.22
2023-05-12T02:40:25.421Z,100535.81
2023-05-12T02:45:47.593Z,100536.63
2023-05-12T02:51:09.818Z,100537.53
2023-05-12T02:56:33.803Z,100530.75
2023-05-12T03:01:55.941Z,100530.28
2023-05-12T03:07:17.835Z,100535.97
2023-05-12T03:12:39.741Z,100540.84
2023-05-12T03:18:02.110Z,100537.94
2023-05-12T03:23:25.217Z,100527.19
2023-05-12T03:28:47.706Z,100544.28
2023-05-12T03:34:10.051Z,100541.41
2023-05-12T03:39:33.121Z,100544.78
2023-05-12T03:44:55.926Z,100542.25
2023-05-12T03:50:18.694Z,100534.28
2023-05-12T03:55:42.048Z,100532.66
2023-05-12T04:01:05.402Z,100520.66
2023-05-12T04:06:28.072Z,100523.97
2023-05-12T04:11:50.559Z,100522.34
2023-05-12T04:17:12.542Z,100518.97
2023-05-12T04:22:34.715Z,100516.94
2023-05-12T04:27:57.040Z,100511.38
2023-05-12T04:33:19.697Z,100512.41
2023-05-12T04:38:42.550Z,100502.13
2023-05-12T04:44:05.121Z,100496.69
2023-05-12T04:49:28.250Z,100485.44
2023-05-12T04:54:50.478Z,100484.38
2023-05-12T05:00:13.377Z,100484.91
2023-05-12T05:05:35.433Z,100479.69
2023-05-12T05:10:57.577Z,100481.78
2023-05-12T05:16:21.407Z,100476.16
2023-05-12T05:21:44.333Z,100473.88
2023-05-12T05:27:06.678Z,100477.56
2023-05-12T05:32:28.695Z,100470.59
2023-05-12T05:37:54.146Z,100473.38
2023-05-12T05:43:16.367Z,100464.63
2023-05-12T05:48:38.413Z,100459.22
2023-05-12T05:54:02.595Z,100464.84
2023-05-12T05:59:25.367Z,100459.72
2023-05-12T06:04:50.123Z,100458.13
2023-05-12T06:10:13.103Z,100457.47
2023-05-12T06:26:04.729Z,100455.81
2023-05-12T06:31:27.049Z,100454.91
2023-05-12T06:36:49.458Z,100447.78
2023-05-12T06:42:12.025Z,100440.84
2023-05-12T06:47:36.799Z,100450.75
2023-05-12T06:52:59.110Z,100447.25
2023-05-12T06:58:22.566Z,100450.91
2023-05-12T07:03:44.747Z,100450.13
2023-05-12T07:09:06.779Z,100443.94
2023-05-12T07:14:29.179Z,100425.84
2023-05-12T07:19:53.553Z,100420.03
2023-05-12T07:25:16.663Z,100428.66
2023-05-12T07:30:39.875Z,100423.31
2023-05-12T07:36:02.505Z,100424.09
2023-05-12T07:41:25.143Z,100424.81
2023-05-12T07:46:47.430Z,100426.75
2023-05-12T07:52:10.220Z,100428.34
2023-05-12T07:57:32.129Z,100424.88
2023-05-12T08:02:54.853Z,100424.28
2023-05-12T08:08:17.578Z,100436.00
2023-05-12T08:13:40.213Z,100434.06
2023-05-12T08:19:02.654Z,100428.94
2023-05-12T08:24:24.609Z,100433.84
2023-05-12T08:29:46.558Z,100429.53
2023-05-12T08:35:10.399Z,100414.78
2023-05-12T08:40:38.840Z,100424.16
2023-05-12T08:46:03.206Z,100414.59
2023-05-12T08:51:26.459Z,100408.31
2023-05-12T09:02:15.195Z,100398.00
2023-05-12T09:07:44.097Z,100397.97
2023-05-12T09:13:15.381Z,100386.28
2023-05-12T09:18:56.995Z,100383.44
2023-05-12T09:24:19.760Z,100373.09
2023-05-12T09:29:59.359Z,100363.34
2023-05-12T09:35:22.660Z,100375.38
2023-05-12T09:40:46.358Z,100371.09
2023-05-12T09:46:08.521Z,100357.53
2023-05-12T09:51:31.953Z,100348.41
2023-05-12T09:56:59.207Z,100358.22
2023-05-12T10:02:25.237Z,100351.41
2023-05-12T10:07:54.097Z,100351.69
2023-05-12T10:13:16.831Z,100340.97
2023-05-12T10:18:43.507Z,100333.81
2023-05-12T10:24:10.281Z,100326.44
2023-05-12T10:29:33.592Z,100328.28
2023-05-12T10:34:56.244Z,100336.41
2023-05-12T10:40:27.518Z,100323.22
2023-05-12T10:46:11.109Z,100327.56
2023-05-12T10:51:51.681Z,100329.22
2023-05-12T10:57:21.942Z,100328.28
2023-05-12T11:02:52.981Z,100326.66
2023-05-12T11:08:17.665Z,100311.00
2023-05-12T11:13:47.391Z,100326.75
2023-05-12T11:19:09.252Z,100316.56
2023-05-12T11:24:31.504Z,100322.41
2023-05-12T11:29:58.992Z,100309.72
2023-05-12T11:35:21.601Z,100312.09
2023-05-12T11:40:44.284Z,100312.25
2023-05-12T11:46:06.500Z,100308.06
2023-05-12T11:51:28.459Z,100296.38
2023-05-12T11:56:54.982Z,100288.00
2023-05-12T12:02:22.820Z,100282.78
2023-05-12T12:07:45.303Z,100285.56
2023-05-12T12:13:07.441Z,100271.22
2023-05-12T12:18:29.007Z,100262.06
2023-05-12T12:23:52.078Z,100257.16
2023-05-12T12:29:14.404Z,100261.69
2023-05-12T12:34:36.116Z,100260.47
2023-05-12T12:39:58.561Z,100252.16
2023-05-12T12:45:20.566Z,100245.66
2023-05-12T12:50:42.897Z,100240.88
2023-05-12T12:56:05.615Z,100239.31
2023-05-12T13:01:27.817Z,100237.03
2023-05-12T13:06:50.314Z,100231.00
2023-05-12T13:12:12.186Z,100232.41
2023-05-12T13:17:34.306Z,100240.00
2023-05-12T13:22:56.765Z,100235.06
2023-05-12T13:28:18.862Z,100225.09
2023-05-12T13:33:40.718Z,100219.25
2023-05-12T13:39:04.214Z,100205.56
2023-05-12T13:44:26.220Z,100230.16
2023-05-12T13:49:48.338Z,100220.06
2023-05-12T13:55:14.605Z,100215.06
2023-05-12T14:00:43.056Z,100215.41
2023-05-12T14:06:05.986Z,100211.13
2023-05-12T14:11:27.877Z,100207.72
2023-05-12T14:16:50.456Z,100205.09
2023-05-12T14:22:25.091Z,100209.56
2023-05-12T14:27:49.314Z,100207.69
2023-05-12T14:33:11.526Z,100200.09
2023-05-12T14:38:33.846Z,100201.72
2023-05-12T14:43:56.308Z,100202.97
2023-05-12T14:49:21.737Z,100203.84
2023-05-12T14:54:43.628Z,100200.41
2023-05-12T15:00:08.709Z,100201.50
2023-05-12T15:05:52.742Z,100187.72
2023-05-12T15:11:14.937Z,100190.75
2023-05-12T15:16:36.984Z,100190.88
2023-05-12T15:21:59.019Z,100198.56
2023-05-12T15:27:20.943Z,100195.84
2023-05-12T15:32:43.123Z,100198.84
2023-05-12T15:38:05.249Z,100203.47
2023-05-12T15:43:27.304Z,100201.44
2023-05-12T15:48:51.435Z,100201.59
2023-05-12T15:54:13.315Z,100200.63
2023-05-12T15:59:35.546Z,100206.09
2023-05-12T16:04:58.365Z,100216.94
2023-05-12T16:10:20.449Z,100206.69
2023-05-12T16:15:42.660Z,100217.53
2023-05-12T16:21:05.732Z,100219.66
2023-05-12T16:26:27.485Z,100221.25
2023-05-12T16:31:49.183Z,100223.59
2023-05-12T16:37:11.538Z,100227.25
2023-05-12T16:42:33.854Z,100218.50
2023-05-12T16:47:56.082Z,100222.22
2023-05-12T16:53:18.118Z,100219.94
2023-05-12T16:58:40.617Z,100219.50
2023-05-12T17:04:02.767Z,100229.22
2023-05-12T17:09:24.787Z,100219.25
2023-05-12T17:14:59.356Z,100219.34
2023-05-12T17:20:28.475Z,100227.16
2023-05-12T17:25:50.591Z,100233.03
2023-05-12T17:31:12.339Z,100238.34
2023-05-12T17:36:34.671Z,100247.72
2023-05-12T17:41:57.240Z,100251.75
2023-05-12T17:47:22.313Z,100250.50
2023-05-12T17:52:44.705Z,100249.53
2023-05-12T17:58:06.852Z,100248.56
2023-05-12T18:03:29.270Z,100258.09
2023-05-12T18:08:51.546Z,100254.13
2023-05-12T18:14:14.742Z,100258.06
2023-05-12T18:19:36.482Z,100245.84
2023-05-12T18:24:58.542Z,100257.91
2023-05-12T18:30:20.715Z,100259.44
2023-05-12T18:35:42.763Z,100256.28
2023-05-12T18:41:04.630Z,100253.66
2023-05-12T18:46:26.637Z,100259.34
2023-05-12T18:51:48.439Z,100256.06
2023-05-12T18:57:10.635Z,100256.72
2023-05-12T19:02:32.891Z,100252.31
2023-05-12T19:07:55.348Z,100249.50
2023-05-12T19:13:17.220Z,100253.97
2023-05-12T19:18:39.606Z,100257.31
2023-05-12T19:24:02.093Z,100253.66
2023-05-12T19:29:24.274Z,100255.38
2023-05-12T19:34:46.742Z,100259.78
2023-05-12T19:40:09.233Z,100257.16
2023-05-12T19:45:31.333Z,100258.28
2023-05-12T19:50:54.782Z,100254.06
2023-05-12T19:56:16.679Z,100252.47
2023-05-12T20:01:38.990Z,100254.94
2023-05-12T20:07:01.825Z,100254.66
2023-05-12T20:12:24.269Z,100246.09
2023-05-12T20:17:46.646Z,100251.47
2023-05-12T20:23:09.059Z,100242.31
2023-05-12T20:28:30.979Z,100245.03
2023-05-12T20:33:54.064Z,100249.81
2023-05-12T20:39:16.397Z,100246.00
2023-05-12T20:44:38.383Z,100255.41
2023-05-12T20:50:05.979Z,100252.41
2023-05-12T20:55:28.398Z,100246.97
2023-05-12T21:00:50.358Z,100251.19
2023-05-12T21:06:15.307Z,100251.47
2023-05-12T21:11:37.399Z,100251.09
2023-05-12T21:16:59.384Z,100236.03
2023-05-12T21:22:21.823Z,100245.09
2023-05-12T21:27:44.138Z,100237.31
2023-05-12T21:33:06.399Z,100240.44
2023-05-12T21:38:28.901Z,100236.38
2023-05-12T21:43:51.016Z,100240.66
2023-05-12T21:49:13.173Z,100243.22
2023-05-12T21:54:35.483Z,100250.16
2023-05-12T21:59:59.562Z,100243.09
2023-05-12T22:05:21.681Z,100247.78
2023-05-12T22:10:43.549Z,100253.59
2023-05-12T22:16:05.696Z,100251.19
2023-05-12T22:21:27.905Z,100253.97
2023-05-12T22:26:49.458Z,100245.66
2023-05-12T22:32:11.511Z,100250.34
2023-05-12T22:37:33.565Z,100237.09
2023-05-12T22:42:56.118Z,100238.66
2023-05-12T22:48:21.429Z,100249.41
2023-05-12T22:53:43.270Z,100253.84
2023-05-12T22:59:05.368Z,100248.00
2023-05-12T23:04:27.464Z,100245.06
2023-05-12T23:09:49.297Z,100242.97
2023-05-12T23:15:11.745Z,100241.84
2023-05-12T23:20:33.621Z,100243.88
2023-05-12T23:25:55.564Z,100231.25
2023-05-12T23:31:17.896Z,100229.88
2023-05-12T23:36:40.436Z,100237.75
2023-05-12T23:42:03.162Z,100241.50
2023-05-12T23:47:25.378Z,100232.16
2023-05-12T23:52:47.655Z,100247.19
2023-05-12T23:58:11.345Z,100235.22
